Clarksville, TN (37040)

3:18 PM CDT on April 28, 2017 (GMT -0500)
Porters Bluff | | Change Station

Elev 525 ft 36.52 °N, 87.33 °W | Updated 6 seconds ago

Overcast
Overcast
77.0 °F
Feels Like 78 °F
N
0.0
Wind Variable Wind from NNW
Gusts 0.0 mph

Today
High -- | Low -- °F
--% Chance of Precip.
Yesterday
High -- | Low -- °F
Precip. -- in
Pressure 29.83 in
Visibility 10.0 miles
Clouds Few 2800 ft
Heat Index 78 °F
Dew Point 71 °F
Humidity 83%
Rainfall 0.00 in
Snow Depth Not available.
5:59 AM 7:35 PM
Waxing Crescent, 8% visible
METAR KHOP 281958Z AUTO 17008KT 10SM FEW028 23/20 A2983 RMK AO2 DZB08E17 SLP100 P0000 T02290202
Pressure 29.83 in
Visibility 10.0 miles
Clouds Few 2800 ft
Heat Index 78 °F
Dew Point 71 °F
Humidity 83%
Rainfall 0.00 in
Snow Depth Not available.
5:59 AM 7:35 PM
Waxing Crescent, 8% visible
METAR KHOP 281958Z AUTO 17008KT 10SM FEW028 23/20 A2983 RMK AO2 DZB08E17 SLP100 P0000 T02290202

Get Severe Weather Alerts

Thanks for signing up!

Be on the lookout for a verification email in your inbox.

You'll start receiving the daily forecast at 8 AM.

×

10-Day Weather Forecast

Almanac

Astronomy

Apr. 28, 2017 Rise Set
Actual Time
Civil Twilight
Nautical Twilight
Astronomical Twilight
Moon
Length of Visible Light
Length of Day
Tomorrow will be .
, % of the Moon is Illuminated

Today's Extremes

State Highs State Lows

Community

WunderPhotos

WunderBlog® & News

Nearby

Air Quality

  Air Quality AQ Index Pollutant
Not available.

Snow Depth

Station Depth Elevation

Earthquake Activity

City Distance Mag. Time & Date
Minimum magnitude displayed is 2.5.

Coastal Water Temperatures

Place Temperature

Stations

Nearby Weather Stations

Station Location Temp. Windchill Dew Point Humidity Wind Precip. Elev Updated Type
                   

Watches & Warnings

There are currently no watches in effect.